Time;durP1;ratioP1;P1;durP2;ratioP2;P2;SDS_P1;SDS_P2;PMS_P1;PMS_P2;Temp;Humidity;BMP_temperature;BMP_pressure;BME280_temperature;BME280_humidity;BME280_pressure;Samples;Min_cycle;Max_cycle;Signal;HPM_P1;HPM_P2
2023/02/16 00:01:45;;;;;;;3.45;2.10;;;9.60;71.80;;;;;;4924203;29;20119;-80
2023/02/16 00:04:22;;;;;;;2.45;2.20;;;9.60;71.80;;;;;;4920093;29;20036;-80
2023/02/16 00:06:49;;;;;;;2.63;2.20;;;9.60;71.80;;;;;;4922287;29;20131;-81
2023/02/16 00:09:16;;;;;;;4.18;2.33;;;9.60;71.80;;;;;;4918939;29;20194;-82
2023/02/16 00:14:27;;;;;;;4.63;2.22;;;9.60;71.90;;;;;;4927077;29;20035;-82
2023/02/16 00:16:54;;;;;;;2.47;2.20;;;9.60;71.90;;;;;;4918478;29;20031;-82
2023/02/16 00:19:26;;;;;;;2.90;2.28;;;9.60;71.90;;;;;;4926780;29;20078;-81
2023/02/16 00:21:55;;;;;;;2.70;2.00;;;9.60;71.90;;;;;;4922682;29;20047;-82
2023/02/16 00:24:21;;;;;;;4.22;2.35;;;9.60;71.90;;;;;;4922233;29;20055;-81
2023/02/16 00:26:48;;;;;;;4.70;2.75;;;9.50;71.80;;;;;;4923908;29;20510;-83
2023/02/16 00:29:24;;;;;;;3.67;2.38;;;9.50;71.80;;;;;;4925139;29;20063;-83
2023/02/16 00:31:52;;;;;;;2.67;2.45;;;9.60;72.00;;;;;;4925363;29;20032;-83
2023/02/16 00:34:31;;;;;;;3.17;2.28;;;9.50;71.80;;;;;;4922409;29;20122;-82
2023/02/16 00:37:01;;;;;;;3.33;2.20;;;9.50;71.80;;;;;;4920606;29;20153;-79
2023/02/16 00:39:27;;;;;;;2.30;1.90;;;9.50;71.80;;;;;;4913859;29;20047;-79
2023/02/16 00:41:56;;;;;;;2.95;2.10;;;9.50;71.90;;;;;;4918089;29;20032;-80
2023/02/16 00:44:31;;;;;;;2.33;2.08;;;9.40;71.70;;;;;;4926590;29;20039;-79
2023/02/16 00:47:20;;;;;;;2.95;2.20;;;9.40;71.80;;;;;;4922621;29;20044;-79
2023/02/16 00:49:52;;;;;;;3.83;2.15;;;9.40;71.90;;;;;;4904782;29;20043;-80
2023/02/16 00:52:34;;;;;;;2.15;1.98;;;9.40;71.90;;;;;;4922267;29;20039;-80
2023/02/16 00:55:07;;;;;;;3.80;2.10;;;9.40;71.90;;;;;;4923424;29;20032;-81
2023/02/16 00:57:51;;;;;;;3.40;2.58;;;9.40;71.90;;;;;;4924475;29;20432;-81
2023/02/16 01:00:35;;;;;;;2.60;2.08;;;9.40;71.90;;;;;;4922997;29;20184;-82
2023/02/16 01:03:06;;;;;;;4.22;2.10;;;9.40;71.90;;;;;;4922998;29;20051;-82
2023/02/16 01:05:31;;;;;;;2.05;1.88;;;9.30;71.70;;;;;;4922790;29;20035;-80
2023/02/16 01:13:28;;;;;;;2.88;1.70;;;9.30;71.70;;;;;;4921957;29;20114;-80
2023/02/16 01:15:55;;;;;;;2.95;1.90;;;9.40;71.90;;;;;;4923263;29;20035;-81
2023/02/16 01:18:21;;;;;;;2.15;1.60;;;9.40;71.90;;;;;;4924810;29;20036;-81
2023/02/16 01:20:50;;;;;;;4.68;2.10;;;9.40;72.00;;;;;;4914939;29;20060;-80
2023/02/16 01:23:16;;;;;;;2.95;2.00;;;9.40;71.90;;;;;;4923337;29;20088;-81
2023/02/16 01:25:42;;;;;;;8.60;2.97;;;9.40;71.90;;;;;;4913857;29;20037;-80
2023/02/16 01:28:24;;;;;;;3.80;2.00;;;9.40;71.90;;;;;;4922359;29;20044;-81
2023/02/16 01:30:50;;;;;;;4.47;1.70;;;9.40;72.00;;;;;;4922032;29;20044;-81
2023/02/16 01:33:16;;;;;;;2.35;1.88;;;9.40;72.00;;;;;;4924776;29;20047;-81
2023/02/16 01:35:43;;;;;;;2.75;1.83;;;9.50;72.20;;;;;;4923573;29;20384;-81
2023/02/16 01:38:18;;;;;;;2.50;1.92;;;9.50;72.10;;;;;;4919847;29;20052;-80
2023/02/16 01:41:21;;;;;;;7.72;2.65;;;9.50;72.20;;;;;;4923087;29;20187;-80
2023/02/16 01:43:54;;;;;;;3.97;1.90;;;9.50;72.20;;;;;;4922847;29;20036;-80
2023/02/16 01:46:36;;;;;;;4.55;1.90;;;9.50;72.10;;;;;;4923459;29;20237;-81
2023/02/16 01:49:01;;;;;;;3.47;2.50;;;9.50;72.20;;;;;;4920224;29;20063;-81
2023/02/16 01:51:36;;;;;;;4.35;2.38;;;9.50;72.10;;;;;;4923826;29;20665;-80
2023/02/16 01:54:26;;;;;;;3.63;1.80;;;9.50;72.20;;;;;;4926525;29;20070;-81
2023/02/16 01:57:29;;;;;;;3.20;1.83;;;9.50;72.20;;;;;;4925589;29;20039;-81
2023/02/16 01:59:55;;;;;;;4.43;1.73;;;9.60;72.40;;;;;;4924575;29;20909;-81
2023/02/16 02:02:42;;;;;;;2.70;1.80;;;9.60;72.30;;;;;;4925424;29;20039;-81
2023/02/16 02:05:34;;;;;;;2.05;1.58;;;9.60;72.40;;;;;;4924581;29;20591;-80
2023/02/16 02:08:26;;;;;;;3.63;1.95;;;9.60;72.40;;;;;;4926441;29;20032;-81
2023/02/16 02:11:10;;;;;;;2.60;2.03;;;9.60;72.40;;;;;;4920610;29;20040;-81
2023/02/16 02:13:54;;;;;;;3.03;1.70;;;9.60;72.40;;;;;;4940545;28;20036;-81
2023/02/16 02:16:23;;;;;;;3.03;2.13;;;9.60;72.30;;;;;;4908330;29;20564;-81
2023/02/16 02:18:50;;;;;;;4.50;3.42;;;9.70;72.50;;;;;;4924831;29;20629;-80
2023/02/16 02:24:29;;;;;;;3.63;1.80;;;9.70;72.50;;;;;;4920850;29;20075;-81
2023/02/16 02:27:14;;;;;;;4.15;1.75;;;9.70;72.50;;;;;;4924920;29;20051;-81
2023/02/16 02:29:55;;;;;;;4.85;1.90;;;9.70;72.60;;;;;;4923118;29;20070;-80
2023/02/16 02:32:58;;;;;;;1.77;1.67;;;9.70;72.50;;;;;;4923906;29;20040;-81
2023/02/16 02:35:43;;;;;;;2.30;2.10;;;9.80;72.80;;;;;;4924562;29;20046;-81
2023/02/16 02:38:17;;;;;;;5.53;2.17;;;9.70;72.50;;;;;;4917097;29;20869;-81
2023/02/16 02:41:17;;;;;;;3.28;2.90;;;9.80;72.70;;;;;;4922490;29;20354;-82
2023/02/16 02:44:07;;;;;;;5.32;2.70;;;9.80;72.80;;;;;;4920964;29;20039;-80
2023/02/16 02:46:35;;;;;;;2.70;1.83;;;9.70;72.50;;;;;;4910933;29;20024;-79
2023/02/16 02:49:03;;;;;;;3.72;2.40;;;9.80;72.70;;;;;;4926350;29;20472;-80
2023/02/16 02:51:29;;;;;;;3.33;2.17;;;9.80;72.70;;;;;;4929326;29;20973;-83
2023/02/16 03:03:22;;;;;;;3.45;2.15;;;9.90;72.90;;;;;;4928170;29;20057;-79
2023/02/16 03:06:00;;;;;;;2.90;2.25;;;9.90;72.90;;;;;;4919340;29;20095;-79
2023/02/16 03:08:30;;;;;;;3.17;1.92;;;9.80;72.80;;;;;;4926343;29;20032;-79
2023/02/16 03:13:47;;;;;;;3.63;2.47;;;9.90;72.90;;;;;;4930214;29;20105;-80
2023/02/16 03:16:24;;;;;;;2.58;2.35;;;9.90;72.90;;;;;;4928475;29;20066;-79
2023/02/16 03:30:01;;;;;;;4.07;2.08;;;10.00;73.10;;;;;;4916474;29;20183;-81
2023/02/16 03:32:27;;;;;;;3.35;2.60;;;9.90;72.90;;;;;;4916978;29;20123;-80
2023/02/16 03:34:53;;;;;;;4.15;2.30;;;9.90;72.90;;;;;;4927685;29;20488;-79
2023/02/16 03:37:19;;;;;;;3.75;1.92;;;9.90;73.00;;;;;;4911169;29;20035;-78
2023/02/16 03:42:29;;;;;;;2.60;1.88;;;10.00;73.20;;;;;;4924364;29;20491;-79
2023/02/16 03:44:55;;;;;;;3.80;2.00;;;10.00;73.20;;;;;;4929378;29;20058;-80
2023/02/16 03:47:21;;;;;;;2.75;2.10;;;10.00;73.20;;;;;;4928747;29;20054;-78
2023/02/16 03:49:47;;;;;;;5.45;2.38;;;10.00;73.50;;;;;;4928084;29;20118;-80
2023/02/16 03:52:13;;;;;;;6.25;2.30;;;10.00;73.20;;;;;;4927962;29;20038;-80
2023/02/16 03:54:39;;;;;;;3.88;2.10;;;10.00;73.20;;;;;;4922927;29;20024;-80
2023/02/16 03:57:05;;;;;;;5.22;2.00;;;10.00;73.20;;;;;;4926020;29;20439;-80
2023/02/16 03:59:31;;;;;;;3.40;1.83;;;10.00;73.20;;;;;;4922566;29;20040;-79
2023/02/16 04:01:58;;;;;;;2.15;1.90;;;10.00;73.20;;;;;;4925532;29;20039;-80
2023/02/16 04:04:24;;;;;;;3.95;1.98;;;10.00;73.70;;;;;;4927323;29;20040;-81
2023/02/16 04:06:50;;;;;;;4.72;2.00;;;10.00;73.20;;;;;;4929083;29;20043;-79
2023/02/16 04:09:16;;;;;;;3.95;2.10;;;10.00;73.20;;;;;;4926951;29;20032;-80
2023/02/16 04:14:26;;;;;;;4.43;1.50;;;10.10;73.40;;;;;;4927005;29;20078;-81
2023/02/16 04:16:54;;;;;;;5.57;2.10;;;10.10;73.40;;;;;;4928917;29;20075;-80
2023/02/16 04:19:22;;;;;;;9.23;2.17;;;10.10;73.40;;;;;;4918617;29;20134;-80
2023/02/16 04:21:48;;;;;;;3.35;2.00;;;10.10;73.40;;;;;;4929013;29;20034;-83
2023/02/16 04:24:14;;;;;;;7.03;2.08;;;10.10;73.40;;;;;;4927577;29;20044;-82
2023/02/16 04:26:40;;;;;;;4.80;1.60;;;10.10;73.40;;;;;;4925678;29;20035;-80
2023/02/16 04:29:06;;;;;;;2.10;1.67;;;10.10;73.40;;;;;;4927453;29;20032;-80
2023/02/16 04:31:32;;;;;;;3.40;1.50;;;10.10;73.40;;;;;;4926783;29;20447;-79
2023/02/16 04:33:58;;;;;;;4.55;1.90;;;10.10;73.40;;;;;;4926892;29;20032;-80
2023/02/16 04:36:23;;;;;;;3.38;1.60;;;10.10;73.40;;;;;;4929100;29;20036;-80
2023/02/16 04:38:49;;;;;;;5.03;1.73;;;10.10;73.40;;;;;;4924857;29;20094;-80
2023/02/16 04:41:15;;;;;;;5.20;1.83;;;10.10;73.40;;;;;;4927381;29;20032;-80
2023/02/16 04:43:42;;;;;;;4.22;1.80;;;10.10;73.40;;;;;;4928930;29;20052;-79
2023/02/16 04:46:08;;;;;;;3.38;1.70;;;10.10;73.40;;;;;;4926792;29;20059;-79
2023/02/16 04:48:34;;;;;;;4.20;1.55;;;10.10;73.40;;;;;;4929012;29;20722;-80
2023/02/16 04:51:03;;;;;;;5.20;1.85;;;10.10;73.40;;;;;;4929273;29;20115;-81
2023/02/16 04:53:29;;;;;;;4.70;1.85;;;10.10;73.50;;;;;;4920573;29;20040;-80
2023/02/16 04:55:55;;;;;;;5.93;1.60;;;10.10;73.50;;;;;;4928391;29;20040;-80
2023/02/16 04:58:21;;;;;;;2.72;1.70;;;10.10;73.40;;;;;;4921804;29;20357;-79
2023/02/16 05:00:46;;;;;;;3.00;1.27;;;10.10;73.40;;;;;;4929329;29;20380;-81
2023/02/16 05:03:12;;;;;;;3.17;1.70;;;10.10;73.40;;;;;;4926828;29;20036;-79
2023/02/16 05:05:39;;;;;;;5.32;1.63;;;10.10;73.40;;;;;;4928473;29;20043;-80
2023/02/16 05:08:05;;;;;;;2.15;1.73;;;10.10;73.40;;;;;;4929021;29;20031;-83
2023/02/16 05:10:31;;;;;;;2.03;1.83;;;10.10;73.40;;;;;;4925824;29;20043;-83
2023/02/16 05:15:41;;;;;;;3.03;1.70;;;10.10;73.40;;;;;;4927705;29;20039;-81
2023/02/16 05:18:07;;;;;;;3.65;2.10;;;10.20;73.50;;;;;;4927402;29;20040;-85
2023/02/16 05:23:18;;;;;;;3.05;1.70;;;10.20;73.60;;;;;;4922383;29;20047;-80
2023/02/16 05:25:44;;;;;;;3.50;1.80;;;10.20;73.60;;;;;;4926335;29;20047;-78
2023/02/16 05:28:10;;;;;;;2.20;1.75;;;10.20;73.60;;;;;;4928761;29;20600;-81
2023/02/16 05:30:35;;;;;;;4.20;1.70;;;10.20;73.60;;;;;;4929948;29;20064;-84
2023/02/16 05:33:01;;;;;;;3.38;1.60;;;10.20;73.70;;;;;;4932715;29;20039;-82
2023/02/16 05:35:27;;;;;;;2.10;1.20;;;10.20;73.60;;;;;;4930943;29;20036;-79
2023/02/16 05:37:53;;;;;;;3.78;1.63;;;10.30;73.80;;;;;;4921442;29;20047;-85
2023/02/16 05:40:19;;;;;;;2.80;1.40;;;10.20;73.70;;;;;;4932599;29;20168;-83
2023/02/16 05:42:45;;;;;;;3.63;1.52;;;10.20;73.70;;;;;;4933430;29;20070;-83
2023/02/16 05:45:11;;;;;;;3.25;1.30;;;10.20;73.80;;;;;;4926553;29;20628;-83
2023/02/16 05:47:37;;;;;;;3.25;1.50;;;10.20;73.70;;;;;;4917534;29;20051;-83
2023/02/16 05:50:03;;;;;;;2.42;1.23;;;10.30;73.90;;;;;;4923035;29;20043;-83
2023/02/16 05:52:29;;;;;;;3.47;1.30;;;10.30;74.50;;;;;;4918544;29;20036;-78
2023/02/16 05:54:55;;;;;;;2.58;1.42;;;10.30;74.00;;;;;;4926445;29;20051;-79
2023/02/16 05:57:21;;;;;;;1.83;1.20;;;10.30;74.00;;;;;;4919058;29;20058;-80
2023/02/16 05:59:46;;;;;;;2.35;1.10;;;10.30;74.00;;;;;;4925556;29;20071;-79
2023/02/16 06:02:12;;;;;;;2.53;1.40;;;10.30;74.00;;;;;;4927891;29;20464;-80
2023/02/16 06:04:38;;;;;;;1.65;1.15;;;10.30;74.00;;;;;;4926765;29;20131;-79
2023/02/16 06:07:04;;;;;;;2.03;1.00;;;10.40;74.20;;;;;;4916498;29;20411;-80
2023/02/16 06:09:30;;;;;;;2.00;1.30;;;10.30;74.00;;;;;;4924886;29;20035;-83
2023/02/16 06:11:56;;;;;;;1.77;1.00;;;10.40;74.20;;;;;;4924797;29;20051;-82
2023/02/16 06:14:22;;;;;;;1.95;1.83;;;10.40;74.20;;;;;;4925739;29;20047;-79
2023/02/16 06:16:52;;;;;;;1.63;1.10;;;10.40;74.20;;;;;;4924153;29;20019;-80
2023/02/16 06:19:19;;;;;;;2.17;1.10;;;10.40;74.20;;;;;;4918220;29;20046;-80
2023/02/16 06:21:45;;;;;;;2.25;1.30;;;10.40;74.30;;;;;;4924301;29;20042;-78
2023/02/16 06:24:12;;;;;;;0.98;0.77;;;10.30;74.40;;;;;;4927175;29;20036;-79
2023/02/16 06:26:38;;;;;;;0.73;0.73;;;10.40;74.30;;;;;;4932086;29;20486;-79
2023/02/16 06:29:05;;;;;;;1.23;0.85;;;10.40;74.30;;;;;;4927809;28;20054;-83
2023/02/16 06:31:31;;;;;;;1.23;0.80;;;10.40;74.40;;;;;;4944551;28;20685;-82
2023/02/16 06:33:57;;;;;;;2.15;0.82;;;10.30;74.30;;;;;;4927188;29;20348;-80
2023/02/16 06:36:24;;;;;;;0.95;0.77;;;10.40;74.50;;;;;;4925088;29;20568;-79
2023/02/16 06:38:49;;;;;;;2.53;1.00;;;10.30;74.30;;;;;;4918159;29;20068;-79
2023/02/16 06:41:29;;;;;;;0.77;0.75;;;10.30;74.40;;;;;;4924002;29;20024;-78
2023/02/16 06:44:00;;;;;;;2.03;1.08;;;10.30;74.40;;;;;;4919756;29;20443;-78
2023/02/16 06:46:27;;;;;;;1.00;0.70;;;10.30;74.50;;;;;;4925300;29;20039;-79
2023/02/16 06:48:53;;;;;;;1.92;1.00;;;10.30;74.50;;;;;;4926145;29;20039;-78
2023/02/16 06:51:19;;;;;;;1.63;1.10;;;10.30;74.50;;;;;;4914274;29;20035;-75
2023/02/16 06:53:46;;;;;;;2.55;0.93;;;10.30;74.60;;;;;;4922367;29;20028;-77
2023/02/16 06:56:12;;;;;;;1.30;0.80;;;10.30;75.10;;;;;;4928125;28;20040;-75
2023/02/16 06:58:38;;;;;;;1.33;0.95;;;10.30;74.60;;;;;;4921538;29;20046;-75
2023/02/16 07:01:04;;;;;;;1.75;0.80;;;10.30;74.60;;;;;;4930533;28;20543;-80
2023/02/16 07:03:30;;;;;;;1.08;0.93;;;10.30;74.60;;;;;;4927117;29;20040;-81
2023/02/16 07:05:56;;;;;;;0.95;0.95;;;10.30;74.70;;;;;;4931199;29;20392;-82
2023/02/16 07:08:22;;;;;;;2.30;1.20;;;10.40;74.80;;;;;;4925529;29;20506;-81
2023/02/16 07:10:48;;;;;;;2.05;1.17;;;10.40;74.90;;;;;;4922056;29;20079;-82
2023/02/16 07:13:14;;;;;;;1.30;1.15;;;10.40;75.00;;;;;;4918647;29;20039;-76
2023/02/16 07:15:40;;;;;;;1.90;0.90;;;10.40;75.10;;;;;;4922910;29;20031;-78
2023/02/16 07:18:06;;;;;;;1.65;1.20;;;10.50;75.30;;;;;;4922775;29;20188;-78
2023/02/16 07:20:32;;;;;;;2.63;1.23;;;10.40;75.10;;;;;;4923714;29;20031;-78
2023/02/16 07:22:58;;;;;;;1.30;0.98;;;10.50;75.30;;;;;;4923112;29;20042;-78
2023/02/16 07:25:25;;;;;;;2.20;1.02;;;10.40;75.20;;;;;;4911825;29;20270;-78
2023/02/16 07:27:53;;;;;;;1.00;0.90;;;10.50;75.40;;;;;;4918076;29;20122;-81
2023/02/16 07:30:19;;;;;;;1.40;1.17;;;10.50;75.40;;;;;;4915242;29;20091;-80
2023/02/16 07:32:46;;;;;;;3.28;1.80;;;10.50;75.60;;;;;;4920422;29;20138;-75
2023/02/16 07:35:12;;;;;;;2.42;1.67;;;10.60;76.30;;;;;;4918876;29;20618;-76
2023/02/16 07:37:38;;;;;;;1.85;1.40;;;10.80;76.70;;;;;;4918753;29;20381;-75
2023/02/16 07:40:05;;;;;;;2.50;1.30;;;10.90;76.90;;;;;;4920045;29;20408;-75
2023/02/16 07:42:32;;;;;;;1.48;1.30;;;11.10;77.10;;;;;;4920952;29;20058;-75
2023/02/16 07:44:59;;;;;;;1.13;1.05;;;11.10;77.00;;;;;;4922390;29;20518;-74
2023/02/16 07:47:25;;;;;;;1.35;1.25;;;11.20;77.10;;;;;;4921338;29;20028;-75
2023/02/16 07:49:51;;;;;;;2.67;1.17;;;11.20;77.10;;;;;;4917503;29;20583;-74
2023/02/16 07:52:17;;;;;;;3.92;1.40;;;11.20;77.10;;;;;;4922366;29;20044;-74
2023/02/16 07:54:42;;;;;;;1.33;1.23;;;11.20;77.10;;;;;;4926314;29;20038;-76
2023/02/16 07:57:09;;;;;;;2.30;1.45;;;11.20;77.40;;;;;;4920232;29;20114;-76
2023/02/16 07:59:35;;;;;;;1.48;1.38;;;11.20;77.10;;;;;;4917105;29;20550;-76
2023/02/16 08:02:00;;;;;;;1.30;1.13;;;11.20;77.00;;;;;;4904906;29;20095;-78
2023/02/16 08:04:26;;;;;;;1.63;1.52;;;11.20;77.00;;;;;;4922128;29;20031;-82
2023/02/16 08:06:55;;;;;;;1.48;1.30;;;11.30;77.10;;;;;;4921571;29;20058;-77
2023/02/16 08:09:21;;;;;;;3.08;1.48;;;11.20;76.90;;;;;;4920596;29;20040;-75
2023/02/16 08:11:47;;;;;;;2.33;1.60;;;11.20;76.90;;;;;;4922009;29;20098;-74
2023/02/16 08:14:14;;;;;;;1.40;1.30;;;11.30;77.00;;;;;;4922441;29;20031;-75
2023/02/16 08:16:40;;;;;;;2.58;1.10;;;11.30;77.00;;;;;;4915463;29;20063;-74
2023/02/16 08:19:08;;;;;;;1.63;1.45;;;11.30;76.90;;;;;;4918996;29;20071;-79
2023/02/16 08:21:35;;;;;;;1.27;1.17;;;11.40;77.10;;;;;;4922668;29;20042;-79
2023/02/16 08:24:03;;;;;;;1.73;1.20;;;11.40;76.90;;;;;;4920417;29;20031;-84
2023/02/16 08:26:38;;;;;;;2.95;1.65;;;11.40;76.90;;;;;;4921801;29;20164;-76
2023/02/16 08:29:05;;;;;;;1.83;1.48;;;11.50;77.00;;;;;;4920408;29;20052;-78
2023/02/16 08:31:34;;;;;;;1.73;1.08;;;11.50;77.40;;;;;;4919676;29;20554;-82
2023/02/16 08:34:02;;;;;;;1.45;1.35;;;11.50;76.80;;;;;;4919346;29;20040;-76
2023/02/16 08:36:37;;;;;;;2.53;1.52;;;11.60;76.90;;;;;;4920744;29;20062;-77
2023/02/16 08:39:06;;;;;;;1.65;1.30;;;11.60;76.80;;;;;;4915754;29;20086;-78
2023/02/16 08:41:34;;;;;;;1.48;1.38;;;11.70;76.80;;;;;;4914206;29;20122;-78
2023/02/16 08:44:01;;;;;;;3.05;1.10;;;11.80;76.90;;;;;;4919136;29;20532;-78
2023/02/16 08:46:28;;;;;;;1.02;1.02;;;11.90;76.90;;;;;;4919343;29;20332;-78
2023/02/16 08:48:57;;;;;;;2.05;1.40;;;12.00;76.90;;;;;;4916514;29;20107;-78
2023/02/16 08:51:24;;;;;;;2.08;1.00;;;12.00;76.70;;;;;;4921707;29;20024;-78
2023/02/16 08:53:51;;;;;;;1.95;1.10;;;12.20;76.90;;;;;;4921914;29;20039;-77
2023/02/16 08:56:18;;;;;;;1.58;0.95;;;12.20;76.70;;;;;;4921495;29;20099;-80
2023/02/16 08:58:45;;;;;;;1.38;1.00;;;12.30;76.80;;;;;;4915807;29;20146;-80
2023/02/16 09:01:14;;;;;;;1.30;1.20;;;12.40;77.30;;;;;;4924488;29;20405;-83
2023/02/16 09:03:41;;;;;;;1.02;0.98;;;12.50;76.80;;;;;;4926264;29;20054;-77
2023/02/16 09:06:11;;;;;;;1.50;1.10;;;12.60;76.70;;;;;;4923304;29;20919;-85
2023/02/16 09:08:37;;;;;;;1.13;1.13;;;12.70;76.70;;;;;;4923457;29;20039;-78
2023/02/16 09:11:05;;;;;;;1.00;1.00;;;12.80;76.60;;;;;;4923925;29;20556;-77
2023/02/16 09:13:36;;;;;;;1.75;1.17;;;13.00;76.70;;;;;;4926251;29;20381;-77
2023/02/16 09:16:04;;;;;;;1.98;1.35;;;13.10;76.70;;;;;;4924694;29;20031;-78
2023/02/16 09:18:31;;;;;;;1.05;1.05;;;13.10;76.40;;;;;;4916032;29;20158;-77
2023/02/16 09:21:06;;;;;;;1.48;1.33;;;13.20;76.40;;;;;;4925268;29;20532;-76
2023/02/16 09:23:34;;;;;;;1.65;1.00;;;13.30;76.40;;;;;;4925196;29;20036;-77
2023/02/16 09:26:01;;;;;;;2.83;1.10;;;13.40;76.40;;;;;;4923618;29;20477;-78
2023/02/16 09:28:29;;;;;;;2.75;2.05;;;13.50;76.40;;;;;;4915825;29;20107;-76
2023/02/16 09:30:55;;;;;;;2.67;0.98;;;13.50;76.30;;;;;;4924185;29;20051;-77
2023/02/16 09:33:21;;;;;;;0.90;0.90;;;13.60;76.40;;;;;;4918142;29;20233;-76
2023/02/16 09:35:48;;;;;;;1.10;1.05;;;13.60;76.30;;;;;;4924991;29;20476;-78
2023/02/16 09:38:16;;;;;;;2.58;1.30;;;13.70;76.50;;;;;;4919052;29;20508;-76
2023/02/16 09:40:43;;;;;;;2.78;1.10;;;13.70;76.40;;;;;;4925780;29;20031;-83
2023/02/16 09:43:28;;;;;;;2.80;1.65;;;13.80;76.40;;;;;;4925553;29;20044;-83
2023/02/16 09:45:57;;;;;;;2.95;0.93;;;13.90;76.40;;;;;;4922376;29;20079;-79
2023/02/16 09:48:37;;;;;;;1.25;0.90;;;14.00;76.40;;;;;;4919034;29;20035;-77
2023/02/16 09:51:06;;;;;;;0.90;0.90;;;14.20;76.50;;;;;;4919498;29;20032;-77
2023/02/16 09:53:38;;;;;;;3.35;0.75;;;14.30;76.30;;;;;;4922851;29;20036;-76
2023/02/16 09:56:21;;;;;;;0.70;0.70;;;14.40;76.20;;;;;;4923841;29;20131;-78
2023/02/16 09:58:55;;;;;;;0.93;0.75;;;14.50;76.10;;;;;;4914031;29;20051;-79
2023/02/16 10:01:44;;;;;;;1.00;0.90;;;14.60;76.00;;;;;;4923152;29;20035;-79
2023/02/16 10:04:39;;;;;;;0.70;0.70;;;14.70;76.00;;;;;;4924699;29;20047;-78
2023/02/16 10:07:39;;;;;;;1.38;0.90;;;14.70;75.90;;;;;;4922594;29;20586;-77
2023/02/16 10:10:07;;;;;;;0.70;0.70;;;14.70;75.90;;;;;;4921413;29;20083;-78
2023/02/16 10:12:45;;;;;;;0.70;0.70;;;14.70;76.00;;;;;;4924680;29;20357;-78
2023/02/16 10:15:19;;;;;;;1.80;0.90;;;14.70;76.10;;;;;;4921072;29;20462;-78
2023/02/16 10:17:51;;;;;;;0.60;0.60;;;14.70;76.10;;;;;;4925359;29;20045;-79
2023/02/16 10:20:33;;;;;;;0.77;0.77;;;14.70;76.10;;;;;;4918960;29;20036;-80
2023/02/16 10:23:34;;;;;;;1.23;0.60;;;14.80;76.20;;;;;;4925134;29;20554;-82
2023/02/16 10:26:12;;;;;;;0.80;0.55;;;14.80;76.00;;;;;;4922222;29;20130;-82
2023/02/16 10:28:49;;;;;;;1.30;0.60;;;14.90;76.10;;;;;;4916730;29;20531;-82
2023/02/16 10:31:19;;;;;;;0.63;0.60;;;15.10;76.20;;;;;;4923993;29;20315;-82
2023/02/16 10:34:08;;;;;;;0.63;0.63;;;15.10;75.90;;;;;;4924882;29;20264;-81
2023/02/16 10:36:56;;;;;;;0.40;0.30;;;15.30;76.10;;;;;;4920592;29;20569;-83
2023/02/16 10:39:47;;;;;;;0.55;0.50;;;15.40;75.90;;;;;;4921078;29;20054;-82
2023/02/16 10:42:34;;;;;;;0.73;0.70;;;15.50;75.80;;;;;;4923821;29;20130;-81
2023/02/16 10:45:14;;;;;;;0.68;0.50;;;15.50;75.60;;;;;;4919409;29;20140;-81
2023/02/16 10:47:42;;;;;;;0.98;0.52;;;15.60;75.70;;;;;;4929472;29;20122;-79
2023/02/16 10:50:20;;;;;;;1.02;0.60;;;15.60;75.60;;;;;;4919138;28;20071;-84
2023/02/16 10:52:48;;;;;;;1.08;0.52;;;15.60;75.50;;;;;;4923681;29;20035;-77
2023/02/16 10:55:15;;;;;;;0.70;0.55;;;15.70;75.60;;;;;;4923263;29;20046;-83
2023/02/16 10:57:41;;;;;;;0.47;0.35;;;15.70;75.40;;;;;;4921962;29;20043;-78
2023/02/16 11:00:13;;;;;;;0.45;0.30;;;15.80;75.50;;;;;;4921451;29;20116;-78
2023/02/16 11:02:46;;;;;;;0.40;0.40;;;15.80;75.30;;;;;;4919553;29;20123;-78
2023/02/16 11:05:35;;;;;;;0.77;0.40;;;15.80;75.30;;;;;;4922238;29;20032;-78
2023/02/16 11:08:02;;;;;;;1.40;0.50;;;15.90;75.30;;;;;;4924368;29;20044;-78
2023/02/16 11:10:39;;;;;;;1.33;0.50;;;15.90;75.30;;;;;;4920885;29;20144;-78
2023/02/16 11:13:06;;;;;;;1.85;0.50;;;16.00;75.30;;;;;;4924072;29;20385;-77
2023/02/16 11:15:36;;;;;;;0.63;0.40;;;16.00;75.10;;;;;;4921871;29;20036;-77
2023/02/16 11:18:28;;;;;;;2.92;1.05;;;16.00;75.00;;;;;;4921114;29;20051;-77
2023/02/16 11:20:56;;;;;;;1.40;0.77;;;16.10;74.90;;;;;;4919827;29;20040;-78
2023/02/16 11:23:28;;;;;;;2.33;0.43;;;16.10;74.80;;;;;;4923662;28;20553;-78
2023/02/16 11:26:10;;;;;;;0.63;0.30;;;16.20;74.80;;;;;;4917581;29;20563;-89
2023/02/16 11:28:43;;;;;;;1.00;0.35;;;16.20;74.60;;;;;;4914965;29;20051;-81
2023/02/16 11:31:31;;;;;;;2.95;0.52;;;16.30;74.50;;;;;;4920293;28;20039;-81
2023/02/16 11:34:10;;;;;;;0.70;0.30;;;16.30;74.40;;;;;;4902980;29;20076;-81
2023/02/16 11:36:45;;;;;;;1.08;0.50;;;16.40;74.40;;;;;;4919012;29;20126;-77
2023/02/16 11:39:20;;;;;;;1.25;0.40;;;16.40;74.30;;;;;;4911716;29;20052;-87
2023/02/16 11:41:56;;;;;;;0.75;0.45;;;16.40;74.10;;;;;;4920342;29;20031;-78
2023/02/16 11:44:31;;;;;;;1.58;0.43;;;16.40;74.10;;;;;;4934293;29;20036;-75
2023/02/16 11:47:04;;;;;;;0.95;0.50;;;16.40;74.00;;;;;;4923695;29;20126;-80
2023/02/16 11:49:34;;;;;;;3.83;1.08;;;16.40;73.80;;;;;;4915889;29;20374;-83
2023/02/16 11:52:16;;;;;;;2.22;0.68;;;16.40;73.70;;;;;;4921625;29;20059;-81
2023/02/16 11:54:48;;;;;;;2.40;0.40;;;16.40;73.70;;;;;;4920893;29;20106;-82
2023/02/16 11:57:21;;;;;;;2.17;0.47;;;16.40;73.60;;;;;;4922391;29;20532;-80
2023/02/16 11:59:47;;;;;;;1.13;0.30;;;16.40;73.50;;;;;;4917511;29;20071;-80
2023/02/16 12:02:29;;;;;;;0.98;0.68;;;16.40;73.50;;;;;;4923123;29;20202;-79
2023/02/16 12:05:06;;;;;;;3.10;0.95;;;16.40;73.20;;;;;;4920730;29;20134;-78
2023/02/16 12:07:57;;;;;;;1.15;0.45;;;16.40;73.30;;;;;;4922083;29;20047;-77
2023/02/16 12:10:29;;;;;;;1.40;0.50;;;16.40;73.20;;;;;;4917176;29;20099;-75
2023/02/16 12:13:03;;;;;;;0.45;0.28;;;16.40;73.10;;;;;;4912510;29;20412;-78
2023/02/16 12:15:30;;;;;;;1.27;0.68;;;16.50;73.10;;;;;;4921945;29;20031;-76
2023/02/16 12:18:05;;;;;;;1.52;0.45;;;16.60;73.10;;;;;;4930909;29;20074;-75
2023/02/16 12:20:45;;;;;;;0.80;0.30;;;16.70;73.00;;;;;;4929337;28;20050;-77
2023/02/16 12:23:24;;;;;;;1.13;0.40;;;16.80;72.80;;;;;;4928982;29;20110;-79
2023/02/16 12:26:02;;;;;;;2.25;0.50;;;16.90;72.60;;;;;;4920690;29;20035;-77
2023/02/16 12:28:58;;;;;;;1.08;0.40;;;17.00;72.50;;;;;;4918787;29;20480;-78
2023/02/16 12:31:46;;;;;;;0.90;0.40;;;17.10;72.30;;;;;;4918702;29;20279;-78
2023/02/16 12:34:29;;;;;;;1.40;0.68;;;17.20;72.20;;;;;;4922196;29;20039;-78
2023/02/16 12:37:13;;;;;;;1.63;0.60;;;17.20;72.10;;;;;;4921962;29;20120;-78
2023/02/16 12:40:01;;;;;;;0.85;0.40;;;17.20;71.90;;;;;;4917347;28;20195;-77
2023/02/16 12:42:56;;;;;;;1.75;0.50;;;17.20;71.70;;;;;;4928204;28;20103;-78
2023/02/16 12:45:25;;;;;;;1.00;0.30;;;17.20;71.70;;;;;;4919967;29;20028;-76
2023/02/16 12:47:57;;;;;;;3.85;1.05;;;17.20;72.20;;;;;;4921362;29;20241;-76
2023/02/16 12:50:27;;;;;;;1.27;0.40;;;17.20;71.70;;;;;;4916855;29;20074;-76
2023/02/16 12:53:19;;;;;;;1.58;0.75;;;17.20;71.60;;;;;;4920079;29;20592;-76
2023/02/16 12:56:04;;;;;;;3.40;1.27;;;17.20;72.00;;;;;;4914322;29;20123;-76
2023/02/16 12:58:38;;;;;;;1.83;0.90;;;17.20;71.40;;;;;;4915475;29;20044;-76
2023/02/16 13:01:13;;;;;;;1.27;0.40;;;17.20;71.50;;;;;;4922271;29;20071;-76
2023/02/16 13:03:51;;;;;;;0.88;0.65;;;17.20;71.30;;;;;;4916227;29;20032;-76
2023/02/16 13:06:36;;;;;;;0.85;0.30;;;17.20;71.30;;;;;;4920928;29;20520;-75
2023/02/16 13:09:20;;;;;;;1.90;0.52;;;17.10;71.10;;;;;;4916776;29;20036;-75
2023/02/16 13:11:58;;;;;;;1.42;0.38;;;17.10;70.90;;;;;;4919716;29;20024;-75
2023/02/16 13:14:31;;;;;;;2.17;0.55;;;17.10;71.00;;;;;;4919007;29;20055;-77
2023/02/16 13:17:01;;;;;;;2.25;0.60;;;17.10;71.00;;;;;;4922364;29;20035;-78
2023/02/16 13:19:28;;;;;;;0.90;0.50;;;17.20;71.00;;;;;;4918390;29;20047;-78
2023/02/16 13:22:16;;;;;;;0.82;0.40;;;17.20;70.90;;;;;;4918674;29;20064;-77
2023/02/16 13:24:42;;;;;;;1.70;0.55;;;17.30;70.80;;;;;;4920575;29;20411;-80
2023/02/16 13:27:17;;;;;;;0.88;0.50;;;17.30;70.70;;;;;;4916361;29;20044;-78
2023/02/16 13:30:24;;;;;;;1.63;0.60;;;17.30;70.70;;;;;;4914998;29;20054;-78
2023/02/16 13:33:13;;;;;;;0.90;0.70;;;17.20;70.30;;;;;;4915551;29;20078;-82
2023/02/16 13:35:57;;;;;;;1.17;0.45;;;17.10;70.40;;;;;;4916186;29;20032;-78
2023/02/16 13:38:35;;;;;;;1.35;0.77;;;17.00;70.40;;;;;;4920852;29;20198;-75
2023/02/16 13:41:46;;;;;;;1.60;0.77;;;16.90;70.30;;;;;;4913358;29;20114;-74
2023/02/16 13:44:16;;;;;;;1.45;0.88;;;16.90;70.20;;;;;;4921537;29;20467;-75
2023/02/16 13:46:47;;;;;;;0.85;0.43;;;16.90;70.40;;;;;;4921575;29;20074;-75
2023/02/16 13:49:36;;;;;;;0.82;0.32;;;17.00;70.40;;;;;;4918268;29;20404;-75
2023/02/16 13:52:02;;;;;;;0.95;0.40;;;17.00;70.10;;;;;;4924277;29;20071;-75
2023/02/16 13:54:34;;;;;;;2.13;0.85;;;17.10;70.30;;;;;;4922923;29;20048;-75
2023/02/16 13:57:05;;;;;;;0.90;0.90;;;17.10;70.10;;;;;;4924421;29;20070;-75
2023/02/16 13:59:34;;;;;;;1.40;0.68;;;17.10;70.00;;;;;;4919330;29;20166;-76